Time;durP1;ratioP1;P1;durP2;ratioP2;P2;SDS_P1;SDS_P2;PMS_P1;PMS_P2;Temp;Humidity;BMP_temperature;BMP_pressure;BME280_temperature;BME280_humidity;BME280_pressure;Samples;Min_cycle;Max_cycle;Signal;HPM_P1;HPM_P2
2022/06/18 00:02:20;;;;;;;3.67;2.67;;;23.50;99.90;;;;;;5064581;28;20488;-83
2022/06/18 00:04:48;;;;;;;3.47;2.40;;;23.60;99.90;;;;;;5071627;28;20459;-85
2022/06/18 00:07:18;;;;;;;7.20;2.57;;;23.70;99.90;;;;;;5085556;28;20458;-85
2022/06/18 00:09:58;;;;;;;3.83;2.77;;;23.70;99.90;;;;;;5081591;28;20460;-82
2022/06/18 00:15:16;;;;;;;3.83;2.70;;;23.70;99.90;;;;;;5074610;28;20462;-85
2022/06/18 00:17:45;;;;;;;3.20;2.70;;;23.60;99.90;;;;;;5072850;28;20468;-82
2022/06/18 00:20:13;;;;;;;2.73;2.40;;;23.70;99.90;;;;;;5066690;28;20455;-84
2022/06/18 00:22:42;;;;;;;6.40;2.30;;;23.80;99.90;;;;;;5062202;28;20467;-85
2022/06/18 00:25:19;;;;;;;3.37;2.37;;;23.70;99.90;;;;;;5062686;28;20977;-82
2022/06/18 00:27:46;;;;;;;3.47;2.13;;;23.80;99.90;;;;;;5061270;28;20509;-86
2022/06/18 00:30:17;;;;;;;2.20;2.00;;;23.90;99.90;;;;;;5063765;28;20482;-84
2022/06/18 00:32:45;;;;;;;3.80;2.00;;;23.90;99.90;;;;;;5064451;28;20455;-85
2022/06/18 00:35:14;;;;;;;4.43;2.33;;;24.00;99.90;;;;;;5063166;28;20494;-82
2022/06/18 00:37:42;;;;;;;3.60;2.93;;;23.90;99.90;;;;;;5063799;28;20459;-82
2022/06/18 00:40:22;;;;;;;2.33;2.13;;;23.90;99.90;;;;;;5062783;28;20443;-85
2022/06/18 00:42:50;;;;;;;3.30;2.70;;;24.00;99.90;;;;;;5066347;28;21133;-82
2022/06/18 00:45:22;;;;;;;5.73;2.33;;;23.90;99.90;;;;;;5060647;28;21014;-82
2022/06/18 00:48:01;;;;;;;2.30;2.10;;;23.90;99.90;;;;;;5065721;28;20829;-83
2022/06/18 00:50:35;;;;;;;3.30;2.53;;;23.80;99.90;;;;;;5064633;28;20470;-84
2022/06/18 00:53:06;;;;;;;7.30;2.50;;;23.70;99.90;;;;;;5061585;28;20982;-84
2022/06/18 00:55:41;;;;;;;4.80;2.60;;;23.80;99.90;;;;;;5059896;28;20558;-83
2022/06/18 00:58:13;;;;;;;2.60;2.20;;;23.80;99.90;;;;;;5064188;28;20507;-84
2022/06/18 01:00:42;;;;;;;2.47;2.20;;;23.70;99.90;;;;;;5062658;28;20530;-84
2022/06/18 01:03:23;;;;;;;5.20;2.00;;;23.70;99.90;;;;;;5053383;28;20470;-83
2022/06/18 01:05:54;;;;;;;3.20;1.97;;;23.70;99.90;;;;;;5066359;28;20562;-82
2022/06/18 01:08:23;;;;;;;2.97;2.33;;;23.70;99.90;;;;;;5056301;28;20641;-84
2022/06/18 01:10:56;;;;;;;2.43;2.00;;;23.70;99.90;;;;;;5058164;28;20540;-82
2022/06/18 01:13:28;;;;;;;2.17;1.93;;;23.70;99.90;;;;;;5060091;28;20561;-85
2022/06/18 01:15:58;;;;;;;7.07;2.47;;;23.80;99.90;;;;;;5063727;28;20443;-84
2022/06/18 01:18:26;;;;;;;6.40;2.40;;;23.70;99.90;;;;;;5065119;28;20443;-84
2022/06/18 01:20:58;;;;;;;3.27;2.90;;;23.70;99.90;;;;;;5063989;28;20534;-84
2022/06/18 01:23:35;;;;;;;3.30;2.10;;;23.70;99.90;;;;;;5058891;28;20482;-82
2022/06/18 01:26:04;;;;;;;3.93;2.50;;;23.80;99.90;;;;;;5060275;28;20538;-84
2022/06/18 01:28:31;;;;;;;2.30;2.07;;;23.80;99.90;;;;;;5053953;28;20471;-83
2022/06/18 01:30:58;;;;;;;2.13;1.83;;;23.70;99.90;;;;;;5053753;28;20501;-82
2022/06/18 01:33:25;;;;;;;3.87;2.30;;;23.80;99.90;;;;;;5057302;28;20479;-83
2022/06/18 01:35:55;;;;;;;2.53;2.33;;;23.70;99.90;;;;;;5060983;28;20974;-83
2022/06/18 01:38:24;;;;;;;3.23;2.53;;;23.70;99.90;;;;;;5056511;28;20510;-83
2022/06/18 01:40:56;;;;;;;2.37;2.00;;;23.70;99.90;;;;;;5050019;28;20465;-83
2022/06/18 01:43:26;;;;;;;2.50;2.10;;;23.70;99.90;;;;;;5056276;28;20487;-82
2022/06/18 01:45:57;;;;;;;3.03;2.53;;;23.70;99.90;;;;;;5054649;28;20566;-83
2022/06/18 01:48:28;;;;;;;3.30;2.60;;;23.60;99.90;;;;;;5053835;28;20576;-81
2022/06/18 01:50:59;;;;;;;3.13;2.60;;;23.60;99.90;;;;;;5056696;28;20484;-83
2022/06/18 01:53:30;;;;;;;2.80;2.60;;;23.60;99.90;;;;;;5063142;28;20477;-82
2022/06/18 01:56:01;;;;;;;4.10;2.47;;;23.60;99.90;;;;;;5059031;28;20446;-83
2022/06/18 01:58:34;;;;;;;3.20;2.90;;;23.50;99.90;;;;;;5057093;28;20560;-83
2022/06/18 02:01:03;;;;;;;3.10;2.23;;;23.60;99.90;;;;;;5054665;28;21022;-82
2022/06/18 02:03:29;;;;;;;2.03;1.83;;;23.50;99.90;;;;;;5060929;28;20862;-81
2022/06/18 02:05:56;;;;;;;2.50;2.30;;;23.40;99.90;;;;;;5062532;28;20565;-81
2022/06/18 02:08:23;;;;;;;2.70;2.50;;;23.30;99.90;;;;;;5060994;28;20463;-81
2022/06/18 02:14:16;;;;;;;5.07;2.10;;;23.20;99.90;;;;;;5046838;28;20523;-80
2022/06/18 02:16:45;;;;;;;5.87;2.90;;;23.20;99.90;;;;;;5053570;28;20464;-81
2022/06/18 02:19:15;;;;;;;3.53;2.47;;;23.30;99.90;;;;;;5056626;28;20477;-83
2022/06/18 02:21:44;;;;;;;3.63;2.30;;;23.30;99.90;;;;;;5057730;28;20822;-83
2022/06/18 02:24:11;;;;;;;3.67;2.50;;;23.30;99.90;;;;;;5049617;28;20478;-82
2022/06/18 02:26:41;;;;;;;2.30;1.80;;;23.30;99.90;;;;;;5060382;28;21019;-82
2022/06/18 02:29:18;;;;;;;3.00;2.80;;;23.30;99.90;;;;;;5054439;28;20455;-84
2022/06/18 02:31:45;;;;;;;7.90;2.33;;;23.30;99.90;;;;;;5055955;28;20517;-82
2022/06/18 02:34:17;;;;;;;3.10;2.53;;;23.30;99.90;;;;;;5055340;28;20487;-82
2022/06/18 02:36:44;;;;;;;5.37;3.17;;;23.30;99.90;;;;;;5056532;28;20555;-84
2022/06/18 02:39:18;;;;;;;2.23;2.03;;;23.30;99.90;;;;;;5062629;28;20467;-81
2022/06/18 02:41:46;;;;;;;3.93;2.27;;;23.20;99.90;;;;;;5058825;28;20514;-81
2022/06/18 02:44:14;;;;;;;2.53;2.20;;;23.20;99.90;;;;;;5050550;28;20475;-83
2022/06/18 02:46:43;;;;;;;2.67;2.03;;;23.20;99.90;;;;;;5060800;28;20455;-82
2022/06/18 02:49:13;;;;;;;2.77;2.57;;;23.30;99.90;;;;;;5069373;28;20485;-82
2022/06/18 02:51:40;;;;;;;2.20;2.00;;;23.30;99.90;;;;;;5059666;28;20511;-84
2022/06/18 02:54:08;;;;;;;2.90;1.90;;;23.20;99.90;;;;;;5051941;28;20507;-81
2022/06/18 02:56:35;;;;;;;2.30;2.10;;;23.20;99.90;;;;;;5055848;28;20909;-83
2022/06/18 02:59:04;;;;;;;3.13;2.23;;;23.10;99.90;;;;;;5051982;28;20483;-83
2022/06/18 03:01:32;;;;;;;3.40;2.33;;;23.00;99.90;;;;;;5057649;28;20463;-82
2022/06/18 03:04:02;;;;;;;3.77;2.40;;;23.10;99.90;;;;;;5059958;28;20478;-82
2022/06/18 03:06:31;;;;;;;2.80;2.50;;;23.20;99.90;;;;;;5056172;28;20582;-82
2022/06/18 03:08:58;;;;;;;1.90;1.80;;;23.00;99.90;;;;;;5049900;28;20537;-82
2022/06/18 03:14:14;;;;;;;6.93;2.13;;;23.10;99.90;;;;;;5051513;28;20477;-83
2022/06/18 03:16:41;;;;;;;3.30;3.00;;;23.10;99.90;;;;;;5054760;28;20491;-84
2022/06/18 03:19:19;;;;;;;2.80;2.20;;;23.00;99.90;;;;;;5053306;28;20457;-84
2022/06/18 03:21:49;;;;;;;2.70;2.40;;;23.00;99.90;;;;;;5054569;28;20454;-82
2022/06/18 03:24:16;;;;;;;3.10;2.50;;;22.90;99.90;;;;;;5056551;28;20507;-84
2022/06/18 03:26:44;;;;;;;2.83;2.20;;;22.80;99.90;;;;;;5050759;28;20534;-84
2022/06/18 03:29:11;;;;;;;3.40;2.07;;;22.70;99.90;;;;;;5048141;28;20473;-84
2022/06/18 03:31:38;;;;;;;3.50;2.17;;;22.70;99.90;;;;;;5051133;28;20574;-84
2022/06/18 03:34:06;;;;;;;4.37;3.20;;;22.70;99.90;;;;;;5053680;28;20491;-83
2022/06/18 03:36:35;;;;;;;5.00;2.77;;;22.70;99.90;;;;;;5055085;28;20459;-82
2022/06/18 03:39:01;;;;;;;3.80;2.17;;;22.70;99.90;;;;;;5056234;28;20455;-83
2022/06/18 03:41:28;;;;;;;2.63;2.40;;;22.80;99.90;;;;;;5053068;28;20540;-82
2022/06/18 03:43:56;;;;;;;3.80;2.07;;;22.80;99.90;;;;;;5052859;28;20487;-84
2022/06/18 03:46:23;;;;;;;2.83;2.40;;;22.70;99.90;;;;;;5052324;28;20463;-85
2022/06/18 03:48:57;;;;;;;3.90;2.60;;;22.70;99.90;;;;;;5058640;28;20455;-83
2022/06/18 03:51:24;;;;;;;3.43;1.70;;;22.80;99.90;;;;;;5055991;28;20577;-84
2022/06/18 03:53:53;;;;;;;2.07;1.73;;;22.70;99.90;;;;;;5057481;28;20505;-84
2022/06/18 03:56:21;;;;;;;2.80;2.50;;;22.70;99.90;;;;;;5055616;28;20930;-83
2022/06/18 03:58:50;;;;;;;3.33;2.33;;;22.80;99.90;;;;;;5052817;28;21127;-84
2022/06/18 04:01:21;;;;;;;2.63;2.43;;;22.90;99.90;;;;;;5062079;28;20542;-82
2022/06/18 04:03:48;;;;;;;7.13;2.63;;;22.90;99.90;;;;;;5058261;28;20471;-87
2022/06/18 04:06:15;;;;;;;2.50;2.13;;;22.80;99.90;;;;;;5053402;28;20455;-84
2022/06/18 04:08:42;;;;;;;3.57;2.97;;;22.90;99.90;;;;;;5064725;28;20458;-85
2022/06/18 04:11:11;;;;;;;3.83;3.03;;;22.90;99.90;;;;;;5058797;28;20567;-86
2022/06/18 04:13:38;;;;;;;3.80;3.27;;;22.90;99.90;;;;;;5062953;28;20565;-83
2022/06/18 04:16:06;;;;;;;2.40;2.00;;;23.00;99.90;;;;;;5054544;28;21146;-84
2022/06/18 04:18:33;;;;;;;2.80;2.47;;;23.10;99.90;;;;;;5064061;28;20541;-85
2022/06/18 04:21:01;;;;;;;4.63;2.47;;;23.20;99.90;;;;;;5059135;28;21488;-83
2022/06/18 04:23:28;;;;;;;5.13;2.67;;;23.20;99.90;;;;;;5063271;28;20489;-83
2022/06/18 04:25:54;;;;;;;6.70;3.00;;;23.30;99.90;;;;;;5056146;28;20547;-84
2022/06/18 04:28:23;;;;;;;2.37;2.17;;;23.30;99.90;;;;;;5064499;28;20578;-84
2022/06/18 04:30:50;;;;;;;4.27;2.93;;;23.30;99.90;;;;;;5047665;28;20477;-83
2022/06/18 04:33:17;;;;;;;6.63;2.70;;;23.30;99.90;;;;;;5054004;28;20574;-84
2022/06/18 04:35:43;;;;;;;2.90;2.23;;;23.40;99.90;;;;;;5057007;28;20463;-85
2022/06/18 04:38:12;;;;;;;3.87;3.00;;;23.40;99.90;;;;;;5060749;28;20483;-86
2022/06/18 04:40:39;;;;;;;5.20;3.47;;;23.50;99.90;;;;;;5060762;28;20452;-86
2022/06/18 04:43:09;;;;;;;3.63;2.60;;;23.50;99.90;;;;;;5057940;28;20503;-83
2022/06/18 04:45:38;;;;;;;7.13;2.40;;;23.50;99.90;;;;;;5058473;28;20513;-83
2022/06/18 04:48:07;;;;;;;2.00;1.67;;;23.60;99.90;;;;;;5060607;28;20603;-86
2022/06/18 04:50:37;;;;;;;3.10;2.73;;;23.70;99.90;;;;;;5072081;28;20539;-88
2022/06/18 04:53:06;;;;;;;3.10;2.50;;;23.80;99.90;;;;;;5090631;28;20476;-85
2022/06/18 04:55:34;;;;;;;3.30;2.70;;;23.80;99.90;;;;;;5086362;28;20459;-86
2022/06/18 04:58:02;;;;;;;5.60;2.90;;;23.90;99.90;;;;;;5077870;28;20447;-84
2022/06/18 05:00:29;;;;;;;3.73;2.57;;;23.90;99.90;;;;;;5063149;28;20479;-83
2022/06/18 05:02:57;;;;;;;7.80;3.80;;;24.00;99.90;;;;;;5062779;28;20552;-81
2022/06/18 05:05:27;;;;;;;4.27;3.37;;;23.90;99.90;;;;;;5064655;28;20456;-83
2022/06/18 05:07:54;;;;;;;3.07;2.50;;;24.10;99.90;;;;;;5064850;28;20451;-82
2022/06/18 05:10:21;;;;;;;3.43;2.70;;;24.20;99.90;;;;;;5062002;28;20550;-85
2022/06/18 05:12:49;;;;;;;3.50;3.20;;;24.30;99.90;;;;;;5058436;28;20571;-83
2022/06/18 05:15:16;;;;;;;3.57;2.20;;;24.40;99.90;;;;;;5054599;28;20507;-85
2022/06/18 05:17:46;;;;;;;2.83;2.43;;;24.30;99.90;;;;;;5058064;28;20581;-86
2022/06/18 05:20:18;;;;;;;4.90;3.10;;;24.50;99.90;;;;;;5055246;28;20460;-83
2022/06/18 05:22:45;;;;;;;6.70;3.57;;;24.70;99.90;;;;;;5059681;28;20479;-86
2022/06/18 05:25:13;;;;;;;6.00;2.90;;;24.80;99.90;;;;;;5054964;28;20848;-80
2022/06/18 05:27:40;;;;;;;3.57;3.20;;;25.00;99.90;;;;;;5053890;28;20521;-84
2022/06/18 05:30:10;;;;;;;4.53;2.97;;;25.20;99.90;;;;;;5055863;28;20518;-81
2022/06/18 05:32:40;;;;;;;3.27;2.97;;;25.50;99.90;;;;;;5046177;28;20977;-83
2022/06/18 05:35:08;;;;;;;4.43;3.20;;;25.70;99.90;;;;;;5056760;28;21025;-83
2022/06/18 05:37:39;;;;;;;5.83;2.80;;;25.70;99.90;;;;;;5054933;28;20470;-83
2022/06/18 05:40:07;;;;;;;8.50;3.33;;;25.70;99.90;;;;;;5060281;28;20463;-83
2022/06/18 05:42:35;;;;;;;3.10;2.63;;;25.90;99.90;;;;;;5057527;28;20546;-83
2022/06/18 05:45:02;;;;;;;4.73;3.00;;;26.20;99.90;;;;;;5044421;28;20460;-83
2022/06/18 05:47:32;;;;;;;6.90;3.37;;;26.20;99.90;;;;;;5059654;28;20594;-84
2022/06/18 05:49:59;;;;;;;4.03;3.10;;;26.20;99.90;;;;;;5064776;28;20451;-85
2022/06/18 05:52:29;;;;;;;3.80;3.03;;;26.60;99.90;;;;;;5067157;28;20546;-85
2022/06/18 05:54:58;;;;;;;5.67;3.23;;;26.90;99.90;;;;;;5065202;28;21072;-86
2022/06/18 05:57:26;;;;;;;3.87;2.50;;;26.80;99.90;;;;;;5068821;28;20518;-83
2022/06/18 05:59:52;;;;;;;4.03;3.37;;;27.00;99.90;;;;;;5056771;28;20453;-84
2022/06/18 06:02:21;;;;;;;6.43;2.73;;;27.30;99.90;;;;;;5065867;28;20518;-80
2022/06/18 06:04:48;;;;;;;5.17;3.10;;;27.20;99.90;;;;;;5065189;28;20569;-83
2022/06/18 06:07:16;;;;;;;6.07;3.17;;;27.10;99.90;;;;;;5063486;28;20486;-83
2022/06/18 06:12:29;;;;;;;4.23;3.10;;;27.30;99.90;;;;;;5073164;28;20558;-86
2022/06/18 06:14:56;;;;;;;2.93;2.63;;;27.40;99.90;;;;;;5074085;28;20534;-82
2022/06/18 06:17:25;;;;;;;3.93;3.27;;;27.60;99.90;;;;;;5068513;28;20471;-83
2022/06/18 06:19:58;;;;;;;4.23;3.83;;;27.60;99.90;;;;;;5070369;28;20435;-82
2022/06/18 06:22:25;;;;;;;4.00;2.77;;;27.40;99.90;;;;;;5069010;28;20459;-82
2022/06/18 06:24:52;;;;;;;10.63;2.63;;;27.40;99.90;;;;;;5074163;28;20541;-85
2022/06/18 06:27:19;;;;;;;7.53;4.07;;;27.50;99.90;;;;;;5072887;28;20470;-82
2022/06/18 06:29:48;;;;;;;4.07;2.57;;;27.90;99.90;;;;;;5070531;28;20558;-82
2022/06/18 06:32:15;;;;;;;5.80;3.90;;;28.10;99.90;;;;;;5067561;28;20513;-83
2022/06/18 06:34:43;;;;;;;4.07;3.27;;;28.40;99.90;;;;;;5076605;28;22127;-83
2022/06/18 06:37:10;;;;;;;7.00;3.80;;;28.60;99.90;;;;;;5071185;28;20455;-83
2022/06/18 06:39:37;;;;;;;3.00;2.70;;;28.70;99.90;;;;;;5067713;28;20450;-83
2022/06/18 06:42:05;;;;;;;6.90;3.80;;;28.40;99.90;;;;;;5062394;28;20514;-83
2022/06/18 06:44:34;;;;;;;6.20;5.67;;;28.60;99.90;;;;;;5086975;28;20507;-81
2022/06/18 06:47:02;;;;;;;4.07;3.07;;;28.60;99.90;;;;;;5078719;28;20479;-85
2022/06/18 06:49:29;;;;;;;3.80;3.50;;;28.80;99.90;;;;;;5073981;28;20481;-83
2022/06/18 06:51:56;;;;;;;3.93;3.40;;;28.70;99.80;;;;;;5066792;28;20489;-83
2022/06/18 06:54:23;;;;;;;4.27;3.50;;;28.60;99.90;;;;;;5053063;28;20474;-82
2022/06/18 06:59:34;;;;;;;4.30;3.77;;;28.90;99.40;;;;;;5046799;28;20551;-84
2022/06/18 07:02:03;;;;;;;4.63;3.10;;;29.00;99.60;;;;;;5065027;28;20554;-84
2022/06/18 07:04:30;;;;;;;3.50;3.13;;;29.10;99.90;;;;;;5063416;28;20467;-84
2022/06/18 07:06:57;;;;;;;5.30;3.40;;;29.20;99.40;;;;;;5061671;28;20459;-83
2022/06/18 07:09:25;;;;;;;6.70;3.40;;;29.60;99.40;;;;;;5065943;28;20544;-85
2022/06/18 07:11:52;;;;;;;6.63;3.10;;;29.90;97.80;;;;;;5060248;28;20774;-83
2022/06/18 07:14:19;;;;;;;8.33;3.17;;;30.10;97.20;;;;;;5052346;28;20540;-84
2022/06/18 07:16:50;;;;;;;8.80;4.23;;;29.90;97.10;;;;;;5041505;28;20526;-85
2022/06/18 07:19:19;;;;;;;6.00;4.73;;;29.80;97.30;;;;;;5048159;28;20463;-83
2022/06/18 07:21:46;;;;;;;4.50;3.50;;;29.90;96.70;;;;;;5059828;22;21025;-71
2022/06/18 07:24:13;;;;;;;9.70;4.03;;;30.10;97.10;;;;;;5071459;28;20496;-71
2022/06/18 07:26:40;;;;;;;3.13;2.83;;;30.30;96.20;;;;;;5078791;28;20462;-70
2022/06/18 07:29:07;;;;;;;7.53;3.20;;;30.20;96.60;;;;;;5081143;28;20463;-68
2022/06/18 07:31:35;;;;;;;8.07;3.03;;;30.20;96.10;;;;;;5091483;28;20481;-69
2022/06/18 07:34:05;;;;;;;6.57;2.97;;;30.40;95.30;;;;;;5098873;28;20997;-70
2022/06/18 07:36:36;;;;;;;3.00;2.70;;;30.60;95.50;;;;;;5093427;27;20853;-70
2022/06/18 07:39:04;;;;;;;3.57;2.97;;;30.60;94.70;;;;;;5089955;27;20465;-71
2022/06/18 07:41:38;;;;;;;4.20;3.00;;;30.60;94.40;;;;;;5073583;28;20753;-69
2022/06/18 07:44:05;;;;;;;7.27;3.77;;;30.50;94.80;;;;;;5100036;28;20456;-69
2022/06/18 07:46:32;;;;;;;5.90;2.50;;;30.80;93.90;;;;;;5096149;28;20453;-70
2022/06/18 07:48:59;;;;;;;5.07;3.23;;;30.90;93.30;;;;;;5102559;28;20910;-70
2022/06/18 07:51:27;;;;;;;5.70;3.77;;;30.80;93.80;;;;;;5100756;28;20480;-71
2022/06/18 07:53:56;;;;;;;5.43;3.33;;;31.10;94.10;;;;;;5104594;27;20500;-70
2022/06/18 07:56:24;;;;;;;3.73;3.20;;;31.40;93.20;;;;;;5107071;27;20461;-70
2022/06/18 07:58:50;;;;;;;8.47;2.87;;;32.00;92.20;;;;;;5103442;28;20433;-70
2022/06/18 08:01:17;;;;;;;3.73;3.17;;;32.50;91.20;;;;;;5104201;28;20488;-70
2022/06/18 08:03:44;;;;;;;9.27;3.23;;;32.60;90.00;;;;;;5096624;27;20465;-71
2022/06/18 08:06:11;;;;;;;3.47;3.07;;;32.60;91.00;;;;;;5100455;27;20466;-70
2022/06/18 08:08:38;;;;;;;6.43;3.13;;;32.90;88.90;;;;;;5102565;28;20550;-71
2022/06/18 08:11:10;;;;;;;5.80;3.87;;;33.40;88.00;;;;;;5107204;27;20813;-71
2022/06/18 08:13:37;;;;;;;13.83;3.37;;;33.10;86.50;;;;;;5102904;28;20483;-70
2022/06/18 08:16:05;;;;;;;6.60;3.13;;;33.30;85.50;;;;;;5104353;27;20916;-71
2022/06/18 08:18:32;;;;;;;5.40;2.90;;;33.00;85.90;;;;;;5102120;27;20460;-71
2022/06/18 08:21:04;;;;;;;3.73;3.03;;;33.60;85.60;;;;;;5105117;28;20572;-70
2022/06/18 08:23:31;;;;;;;3.50;3.20;;;34.00;82.80;;;;;;5103072;27;21035;-70
2022/06/18 08:25:58;;;;;;;4.07;3.17;;;33.90;82.30;;;;;;5105966;27;20482;-70
2022/06/18 08:28:26;;;;;;;4.33;3.83;;;33.70;84.00;;;;;;5093670;27;20478;-70
2022/06/18 08:30:53;;;;;;;13.67;3.37;;;33.80;82.50;;;;;;5091227;28;21521;-70
2022/06/18 08:33:20;;;;;;;3.63;3.37;;;34.20;80.40;;;;;;5092615;28;21106;-71
2022/06/18 08:35:47;;;;;;;7.40;3.17;;;33.90;79.60;;;;;;5081202;28;20466;-69
2022/06/18 08:38:14;;;;;;;6.93;3.13;;;34.10;78.40;;;;;;5082918;27;20483;-70
2022/06/18 08:40:53;;;;;;;4.03;3.40;;;33.70;80.00;;;;;;5083907;28;20479;-72
2022/06/18 08:43:45;;;;;;;5.90;3.13;;;33.90;78.90;;;;;;5098579;28;20440;-71
2022/06/18 08:46:20;;;;;;;5.23;3.73;;;34.20;79.20;;;;;;5098697;27;20448;-71
2022/06/18 08:49:10;;;;;;;6.90;3.17;;;34.90;78.10;;;;;;5101604;28;20458;-71
2022/06/18 08:51:46;;;;;;;6.23;3.70;;;34.70;75.80;;;;;;5100305;28;20479;-70
2022/06/18 08:54:23;;;;;;;3.50;2.90;;;34.50;77.60;;;;;;5100413;28;20492;-71
2022/06/18 08:56:58;;;;;;;6.03;2.90;;;34.10;77.20;;;;;;5103974;27;21009;-71
2022/06/18 08:59:37;;;;;;;6.57;4.23;;;34.30;77.20;;;;;;5104431;28;20440;-71
2022/06/18 09:02:14;;;;;;;4.77;3.03;;;34.50;78.50;;;;;;5102790;27;21044;-73
2022/06/18 09:04:54;;;;;;;5.73;3.30;;;34.60;75.50;;;;;;5102442;28;21007;-71
2022/06/18 09:07:45;;;;;;;3.90;3.50;;;35.00;75.60;;;;;;5102969;28;20456;-71
2022/06/18 09:10:19;;;;;;;4.87;3.00;;;35.70;72.20;;;;;;5105227;28;20480;-72
2022/06/18 09:12:51;;;;;;;5.87;2.73;;;35.60;72.00;;;;;;5102200;28;20477;-72
2022/06/18 09:15:24;;;;;;;5.93;3.50;;;35.90;73.40;;;;;;5103811;28;20459;-71
2022/06/18 09:17:58;;;;;;;5.53;3.20;;;36.30;71.00;;;;;;5099357;27;20840;-72
2022/06/18 09:20:30;;;;;;;6.30;3.90;;;36.60;68.80;;;;;;5101945;28;21011;-72
2022/06/18 09:23:04;;;;;;;4.43;3.10;;;36.80;67.00;;;;;;5103992;28;20453;-72
2022/06/18 09:25:36;;;;;;;4.90;3.97;;;37.10;68.80;;;;;;5103696;27;21026;-71
2022/06/18 09:28:05;;;;;;;5.60;3.20;;;37.10;67.00;;;;;;5105125;28;20471;-71
2022/06/18 09:30:38;;;;;;;3.90;3.10;;;37.10;67.10;;;;;;5099445;28;20480;-70
2022/06/18 09:33:10;;;;;;;4.03;3.70;;;36.90;65.40;;;;;;5102176;27;20473;-71
2022/06/18 09:35:42;;;;;;;8.03;3.87;;;36.50;64.10;;;;;;5102925;27;20453;-71
2022/06/18 09:38:17;;;;;;;7.20;3.40;;;37.10;63.40;;;;;;5104688;27;20463;-71
2022/06/18 09:40:49;;;;;;;7.57;2.97;;;37.00;64.20;;;;;;5099792;28;20857;-70
2022/06/18 09:43:23;;;;;;;6.10;2.70;;;37.20;63.40;;;;;;5106668;28;20474;-71
2022/06/18 09:45:55;;;;;;;6.47;3.57;;;36.80;64.50;;;;;;5100265;28;20460;-71
2022/06/18 09:48:22;;;;;;;6.07;3.30;;;36.70;63.40;;;;;;5096898;28;20525;-71
2022/06/18 09:50:51;;;;;;;8.67;3.17;;;36.90;63.20;;;;;;5101920;28;20480;-70
2022/06/18 09:53:23;;;;;;;7.33;4.00;;;37.10;62.60;;;;;;5105284;27;20496;-71
2022/06/18 09:55:54;;;;;;;8.53;3.27;;;37.00;63.20;;;;;;5101793;28;21023;-70
2022/06/18 09:58:24;;;;;;;3.00;2.80;;;37.50;61.60;;;;;;5105077;28;20457;-71
2022/06/18 10:00:55;;;;;;;7.80;4.57;;;37.40;61.50;;;;;;5089518;27;21022;-70
2022/06/18 10:08:58;;;;;;;7.60;3.87;;;38.30;57.80;;;;;;5106820;27;20465;-71
2022/06/18 10:11:25;;;;;;;6.47;4.90;;;38.30;57.50;;;;;;5105762;28;20479;-71
2022/06/18 10:13:58;;;;;;;6.70;3.60;;;38.40;56.70;;;;;;5104313;27;20480;-71
2022/06/18 10:16:37;;;;;;;9.33;3.63;;;38.20;56.90;;;;;;5101409;28;20540;-71
2022/06/18 10:19:12;;;;;;;3.80;3.37;;;38.40;56.10;;;;;;5104203;28;20960;-71
2022/06/18 10:21:47;;;;;;;8.30;3.83;;;37.90;55.50;;;;;;5098676;28;20481;-71
2022/06/18 10:24:19;;;;;;;4.63;3.40;;;38.20;56.60;;;;;;5104199;28;20427;-72
2022/06/18 10:26:56;;;;;;;4.80;3.00;;;38.40;55.10;;;;;;5105679;28;20457;-72
2022/06/18 10:29:35;;;;;;;5.40;4.10;;;38.20;55.70;;;;;;5100742;28;20956;-70
2022/06/18 10:32:17;;;;;;;7.00;3.60;;;38.70;56.20;;;;;;5102590;28;20469;-70
2022/06/18 10:35:16;;;;;;;10.53;3.50;;;39.10;54.90;;;;;;5104114;28;20483;-70
2022/06/18 10:37:52;;;;;;;5.27;3.50;;;39.50;55.80;;;;;;5103507;28;20577;-72
2022/06/18 10:40:30;;;;;;;5.20;3.53;;;39.80;54.80;;;;;;5102576;28;20460;-70
2022/06/18 10:43:12;;;;;;;8.90;3.90;;;39.80;53.20;;;;;;5104045;27;20475;-70
2022/06/18 10:45:42;;;;;;;7.73;3.50;;;40.10;52.90;;;;;;5099793;28;20539;-70
2022/06/18 10:48:14;;;;;;;6.63;3.87;;;40.10;52.50;;;;;;5100302;28;20465;-71
2022/06/18 10:50:46;;;;;;;6.73;3.17;;;40.20;52.80;;;;;;5079601;28;20484;-70
2022/06/18 10:53:15;;;;;;;5.27;3.50;;;40.60;52.30;;;;;;5091803;28;20488;-71
2022/06/18 10:55:43;;;;;;;3.43;3.13;;;40.40;52.50;;;;;;5097307;27;20462;-71
2022/06/18 10:58:12;;;;;;;8.03;3.60;;;40.50;51.70;;;;;;5087786;27;20453;-70
2022/06/18 11:00:39;;;;;;;5.33;3.00;;;40.50;51.80;;;;;;5083315;28;23510;-70
2022/06/18 11:03:20;;;;;;;6.10;3.10;;;40.00;51.40;;;;;;5087407;28;20548;-70
2022/06/18 11:05:48;;;;;;;6.77;3.57;;;40.10;51.70;;;;;;5090325;28;20457;-71
2022/06/18 11:08:22;;;;;;;5.93;4.17;;;40.20;52.50;;;;;;5091027;28;20548;-71
2022/06/18 11:10:53;;;;;;;7.27;3.33;;;40.50;52.20;;;;;;5091322;28;21021;-71
2022/06/18 11:13:26;;;;;;;4.83;3.00;;;40.30;51.10;;;;;;5104376;28;20485;-71
2022/06/18 11:16:04;;;;;;;8.13;3.60;;;39.60;50.70;;;;;;5108377;28;20436;-70
2022/06/18 11:18:32;;;;;;;6.30;3.33;;;39.40;50.30;;;;;;5109072;27;20453;-71
2022/06/18 11:21:03;;;;;;;7.40;3.40;;;39.30;51.30;;;;;;5106866;28;20499;-71
2022/06/18 11:23:32;;;;;;;8.77;4.13;;;39.80;51.50;;;;;;5104907;28;20434;-70
2022/06/18 11:25:59;;;;;;;7.23;4.03;;;40.20;50.50;;;;;;5091479;27;20467;-70
2022/06/18 11:28:33;;;;;;;4.67;3.37;;;40.60;49.40;;;;;;5099545;28;20985;-71
2022/06/18 11:31:02;;;;;;;6.13;4.50;;;40.30;49.90;;;;;;5082625;28;21042;-71
2022/06/18 11:33:33;;;;;;;6.57;3.37;;;40.20;50.10;;;;;;5094366;28;20972;-70
2022/06/18 11:36:08;;;;;;;6.67;3.77;;;40.30;51.00;;;;;;5092507;27;20468;-71
2022/06/18 11:38:36;;;;;;;5.93;3.47;;;40.10;50.30;;;;;;5088726;27;20811;-71
2022/06/18 11:41:10;;;;;;;9.97;3.10;;;40.40;48.90;;;;;;5095268;28;20860;-71
2022/06/18 11:43:48;;;;;;;4.43;3.00;;;40.30;48.00;;;;;;5090416;28;20445;-71
2022/06/18 11:46:18;;;;;;;9.93;3.50;;;40.80;48.50;;;;;;5095978;27;20871;-71
2022/06/18 11:48:52;;;;;;;10.67;3.97;;;41.50;46.90;;;;;;5100335;27;20447;-71
2022/06/18 11:51:26;;;;;;;6.20;3.47;;;41.80;46.60;;;;;;5105787;27;20486;-71
2022/06/18 11:54:02;;;;;;;12.27;3.77;;;41.70;46.30;;;;;;5096123;28;20572;-71
2022/06/18 11:56:41;;;;;;;12.23;3.60;;;41.60;47.10;;;;;;5097378;28;20469;-72
2022/06/18 11:59:16;;;;;;;5.43;3.70;;;42.10;46.30;;;;;;5104550;28;20463;-71
2022/06/18 12:01:51;;;;;;;8.33;2.80;;;42.20;45.80;;;;;;5078272;27;21127;-71
2022/06/18 12:04:25;;;;;;;9.17;4.57;;;41.50;44.90;;;;;;5093492;27;20949;-72
2022/06/18 12:07:16;;;;;;;10.90;4.30;;;41.00;45.80;;;;;;5094380;28;20826;-71
2022/06/18 12:09:43;;;;;;;7.37;3.67;;;41.40;45.50;;;;;;5098086;27;20466;-71
2022/06/18 12:12:42;;;;;;;5.10;3.20;;;41.80;45.50;;;;;;5098029;28;20538;-71
2022/06/18 12:15:18;;;;;;;7.03;3.80;;;42.00;45.60;;;;;;5094889;28;20488;-71
2022/06/18 12:17:51;;;;;;;7.90;3.20;;;42.00;45.30;;;;;;5101869;27;20486;-72
2022/06/18 12:23:52;;;;;;;6.63;3.63;;;40.80;46.10;;;;;;5093493;28;20525;-71
2022/06/18 12:26:23;;;;;;;12.83;3.73;;;41.20;45.80;;;;;;5091611;27;20472;-72
2022/06/18 12:29:10;;;;;;;9.17;4.50;;;40.10;48.10;;;;;;5097519;28;21186;-71
2022/06/18 12:31:44;;;;;;;11.03;2.90;;;40.60;47.00;;;;;;5100464;28;20477;-72
2022/06/18 12:34:19;;;;;;;7.67;3.10;;;40.50;46.20;;;;;;5104842;28;20480;-71
2022/06/18 12:36:53;;;;;;;6.90;3.00;;;41.00;46.10;;;;;;5091468;28;20507;-71
2022/06/18 12:39:33;;;;;;;10.13;5.10;;;41.30;45.30;;;;;;5096320;28;21008;-71
2022/06/18 12:42:07;;;;;;;13.70;4.03;;;40.90;47.10;;;;;;5085297;28;20517;-72
2022/06/18 12:44:40;;;;;;;6.33;3.10;;;41.10;45.90;;;;;;5100364;28;20460;-70
2022/06/18 12:47:14;;;;;;;8.63;4.30;;;40.40;46.50;;;;;;5099620;28;20461;-71
2022/06/18 12:49:47;;;;;;;12.07;5.00;;;41.00;46.40;;;;;;5102240;28;20461;-72
2022/06/18 12:52:22;;;;;;;6.70;3.07;;;41.50;46.40;;;;;;5097925;28;20485;-72
2022/06/18 12:55:09;;;;;;;9.03;3.50;;;42.30;45.00;;;;;;5100012;27;20483;-70
2022/06/18 12:57:52;;;;;;;6.30;3.70;;;42.40;43.90;;;;;;5099233;28;20460;-72
2022/06/18 13:00:24;;;;;;;5.80;3.07;;;42.10;44.90;;;;;;5079514;27;20457;-72
2022/06/18 13:03:29;;;;;;;14.63;3.43;;;41.70;45.00;;;;;;5094687;28;20460;-71
2022/06/18 13:06:02;;;;;;;2.97;2.47;;;42.00;45.00;;;;;;5085594;28;20464;-71
2022/06/18 13:08:42;;;;;;;9.20;4.00;;;41.10;44.60;;;;;;5096686;27;20449;-71
2022/06/18 13:11:21;;;;;;;9.53;3.90;;;41.30;45.20;;;;;;5090107;28;20989;-71
2022/06/18 13:14:00;;;;;;;8.50;3.43;;;41.70;46.00;;;;;;5097147;28;20454;-71
2022/06/18 13:16:33;;;;;;;7.33;4.00;;;42.00;44.10;;;;;;5092514;28;20449;-71
2022/06/18 13:19:09;;;;;;;5.70;3.43;;;41.80;46.20;;;;;;5095558;28;20457;-70
2022/06/18 13:21:38;;;;;;;7.70;3.80;;;41.40;44.80;;;;;;5093321;28;20480;-71
2022/06/18 13:29:50;;;;;;;11.00;2.90;;;41.50;45.40;;;;;;5099249;27;20603;-71
2022/06/18 13:32:23;;;;;;;7.13;3.17;;;41.90;43.80;;;;;;5104657;28;20467;-72
2022/06/18 13:35:01;;;;;;;11.43;3.30;;;42.00;44.60;;;;;;5104829;28;20904;-72